KSAD

Safford Regional Airport

Safford, Arizona, USA
METAR KSAD 182151Z AUTO 00000KT 10SM CLR 36/04 A2990 RMK AO2 SLP066 T03610039
Observed Flight Rules
Jun-18 @ 21:51 UTC (53 minutes ago) Visual Flight Rules
Visibility Clouds
10 miles
  • Clear skies
Temperatures Readings
Current 36°C / 97°F
Dewpoint 4°C / 39°F
Humidity 13%
Altimeter 29.9" Hg
Pressure 1006.6 hPa
Elevation 962
METAR KSAD 182151Z AUTO 00000KT 10SM CLR 36/04 A2990 RMK AO2 SLP066 T03610039
Observed Flight Rules
Jun-18 @ 21:51 UTC
(53 minutes ago)
VFR
Clouds
  • Clear skies
Temperature Dewpoint
36°C / 97°F 4°C / 39°F
Humidity Altimeter Pressure
13% 29.9" Hg 1006.6 hPa